KSJC/SJC METAR and TAF weather

Enter ICAO airport designator
Station Type Date Time Source
KSJC METAR 2019/10/15 20:53 UTC NOAA

KSJC 152053Z VRB05KT 8SM FEW009 19/12 A3007 RMK AO2 SLP181 T01890117 58017


Station Type Date Time Source
KSJC Decoded METAR 2019/10/15 20:53 UTC NOAA

SAN JOSE INTERNATIONAL AIRPORT, CA, United States (KSJC) 37-22N 121-55W 25M
Oct 15, 2019 - 04:53 PM EDT / 2019.10.15 2053 UTC
Wind: Variable at 6 MPH (5 KT):0
Visibility: 8 mile(s):0
Sky conditions: mostly clear
Temperature: 66.0 F (18.9 C)
Dew Point: 53.1 F (11.7 C)
Relative Humidity: 62%
Pressure (altimeter): 30.07 in. Hg (1018 hPa)
Pressure tendency: 0.05 inches (1.7 hPa) lower than three hours ago
ob: KSJC 152053Z VRB05KT 8SM FEW009 19/12 A3007 RMK AO2 SLP181 T01890117 58017
cycle: 21

Station Type Date Time Source
KSJC TAF 2019/10/15 18:42 UTC NOAA

TAF KSJC 151740Z 1518/1618 VRB03KT P6SM SCT010
FM151900 32009KT P6SM SKC
FM160400 VRB03KT P6SM SKC
FM160900 VRB03KT P6SM FEW010 FEW200
FM161200 VRB03KT P6SM BKN010
FM161700 VRB03KT P6SM SCT010 BKN200

Example: see airport list